Irving North's Hourly Summary for Monday, May 14, 2018
Hour Temp
(f)
RH
(%)
Solar Rad.
(MJ/m2)
Rainfall
(in)
Wind
(mph)
5/14/2018 12:00 AM 80 63 0 0 6.36
5/14/2018 1:00 AM 79 65 0 0 5.67
5/14/2018 2:00 AM 78 67 0 0 6.47
5/14/2018 3:00 AM 76 71 0 0 5.21
5/14/2018 4:00 AM 75 76 0 0 5.02
5/14/2018 5:00 AM 74 79 0 0 5.14
5/14/2018 6:00 AM 73 81 0.02 0 5.18
5/14/2018 7:00 AM 74 76 0.43 0 5.83
5/14/2018 8:00 AM 76 72 0.97 0 7.95
5/14/2018 9:00 AM 77 66 1.47 0 9.08
5/14/2018 10:00 AM 80 59 2.24 0 8.64
5/14/2018 11:00 AM 83 55 2.55 0 8.56
5/14/2018 12:00 PM 84 53 2.75 0 8.87
5/14/2018 1:00 PM 86 49 2.91 0 8.64
5/14/2018 2:00 PM 87 48 2.43 0 8.58
5/14/2018 3:00 PM 87 46 1.94 0 7.55
5/14/2018 4:00 PM 87 47 1.65 0 7.69
5/14/2018 5:00 PM 88 46 1.41 0 7.44
5/14/2018 6:00 PM 87 47 0.56 0 7.52
5/14/2018 7:00 PM 85 48 0.12 0 6.96
5/14/2018 8:00 PM 84 53 0.01 0 5.8
5/14/2018 9:00 PM 82 58 0 0 6.27
5/14/2018 10:00 PM 80 61 0 0 6.12
5/14/2018 11:00 PM 79 64 0 0 5.33
Data Summary 80 60 21.46 0.00 6.91